createdAt,value
2022-08-03T00:00:39.758Z,21.80
2022-08-03T00:03:08.148Z,22.08
2022-08-03T00:05:36.313Z,21.95
2022-08-03T00:08:05.178Z,21.93
2022-08-03T00:10:37.086Z,21.81
2022-08-03T00:13:05.994Z,21.79
2022-08-03T00:15:35.698Z,21.56
2022-08-03T00:18:03.979Z,21.70
2022-08-03T00:20:32.324Z,21.43
2022-08-03T00:23:00.799Z,21.29
2022-08-03T00:25:29.184Z,21.20
2022-08-03T00:27:59.164Z,21.35
2022-08-03T00:30:30.821Z,21.22
2022-08-03T00:32:59.682Z,21.26
2022-08-03T00:35:36.858Z,21.32
2022-08-03T00:38:17.031Z,21.17
2022-08-03T00:40:46.198Z,21.27
2022-08-03T00:43:15.972Z,21.12
2022-08-03T00:45:45.221Z,21.00
2022-08-03T00:48:29.432Z,20.89
2022-08-03T00:51:00.648Z,20.87
2022-08-03T00:53:29.925Z,20.95
2022-08-03T00:55:58.262Z,20.90
2022-08-03T00:58:27.938Z,20.86
2022-08-03T01:00:56.290Z,21.01
2022-08-03T01:03:24.777Z,20.84
2022-08-03T01:05:59.837Z,20.89
2022-08-03T01:08:39.779Z,20.91
2022-08-03T01:11:14.657Z,20.72
2022-08-03T01:14:01.411Z,20.70
2022-08-03T01:16:38.866Z,20.84
2022-08-03T01:19:34.409Z,20.82
2022-08-03T01:22:17.594Z,20.90
2022-08-03T01:24:57.330Z,20.72
2022-08-03T01:27:42.443Z,20.74
2022-08-03T01:30:13.325Z,20.82
2022-08-03T01:33:02.425Z,20.67
2022-08-03T01:35:38.854Z,20.36
2022-08-03T01:38:13.104Z,20.36
2022-08-03T01:40:42.834Z,20.41
2022-08-03T01:43:14.393Z,20.29
2022-08-03T01:45:46.681Z,20.26
2022-08-03T01:48:18.903Z,20.22
2022-08-03T01:50:48.759Z,20.16
2022-08-03T01:53:18.628Z,20.18
2022-08-03T01:55:50.135Z,20.16
2022-08-03T01:58:20.427Z,20.06
2022-08-03T02:00:51.129Z,20.04
2022-08-03T02:03:21.925Z,20.04
2022-08-03T02:06:11.502Z,20.01
2022-08-03T02:08:42.296Z,20.01
2022-08-03T02:11:10.624Z,20.07
2022-08-03T02:13:39.909Z,20.07
2022-08-03T02:16:10.577Z,19.96
2022-08-03T02:18:41.438Z,19.93
2022-08-03T02:21:11.761Z,20.02
2022-08-03T02:24:01.275Z,19.87
2022-08-03T02:26:32.111Z,19.72
2022-08-03T02:29:04.573Z,19.89
2022-08-03T02:31:38.519Z,19.82
2022-08-03T02:34:11.465Z,20.00
2022-08-03T02:36:40.770Z,19.80
2022-08-03T02:39:12.617Z,19.87
2022-08-03T02:41:45.072Z,19.99
2022-08-03T02:44:15.995Z,19.89
2022-08-03T02:46:49.457Z,19.88
2022-08-03T02:49:41.396Z,19.55
2022-08-03T02:52:12.613Z,19.64
2022-08-03T02:54:45.577Z,19.59
2022-08-03T02:57:15.892Z,19.38
2022-08-03T02:59:45.517Z,19.40
2022-08-03T03:02:17.215Z,19.40
2022-08-03T03:05:51.619Z,19.51
2022-08-03T03:07:51.413Z,19.18
2022-08-03T03:10:23.098Z,19.28
2022-08-03T03:12:53.916Z,18.87
2022-08-03T03:15:22.586Z,18.95
2022-08-03T03:17:55.142Z,19.05
2022-08-03T03:20:26.757Z,18.99
2022-08-03T03:23:00.570Z,19.10
2022-08-03T03:25:30.180Z,19.01
2022-08-03T03:27:58.951Z,18.96
2022-08-03T03:30:28.312Z,19.10
2022-08-03T03:32:59.474Z,19.10
2022-08-03T03:35:28.768Z,19.03
2022-08-03T03:37:57.082Z,19.03
2022-08-03T03:40:25.348Z,19.00
2022-08-03T03:42:53.823Z,18.87
2022-08-03T03:45:23.510Z,18.79
2022-08-03T03:47:52.048Z,18.79
2022-08-03T03:50:23.698Z,18.80
2022-08-03T03:52:51.829Z,18.87
2022-08-03T03:55:20.538Z,18.81
2022-08-03T03:57:48.667Z,18.91
2022-08-03T04:00:18.691Z,18.75
2022-08-03T04:02:47.184Z,18.86
2022-08-03T04:05:33.011Z,18.76
2022-08-03T04:08:22.065Z,18.78
2022-08-03T04:11:00.378Z,18.84
2022-08-03T04:13:33.485Z,18.96
2022-08-03T04:16:02.622Z,18.94
2022-08-03T04:18:34.295Z,19.08
2022-08-03T04:21:05.273Z,18.99
2022-08-03T04:23:37.288Z,18.96
2022-08-03T04:26:06.704Z,18.82
2022-08-03T04:28:36.418Z,19.02
2022-08-03T04:31:05.958Z,19.07
2022-08-03T04:33:35.901Z,19.08
2022-08-03T04:36:08.283Z,19.05
2022-08-03T04:38:45.554Z,19.16
2022-08-03T04:41:15.548Z,19.12
2022-08-03T04:43:46.083Z,19.11
2022-08-03T04:46:15.704Z,19.05
2022-08-03T04:48:45.313Z,19.07
2022-08-03T04:51:14.895Z,18.97
2022-08-03T04:53:44.939Z,19.05
2022-08-03T04:56:13.273Z,19.17
2022-08-03T04:58:41.538Z,19.14
2022-08-03T05:01:09.843Z,19.14
2022-08-03T05:03:38.601Z,19.33
2022-08-03T05:06:10.990Z,19.38
2022-08-03T05:08:45.934Z,19.27
2022-08-03T05:11:17.118Z,19.71
2022-08-03T05:13:45.603Z,19.80
2022-08-03T05:16:14.998Z,19.80
2022-08-03T05:18:44.244Z,19.88
2022-08-03T05:21:14.203Z,19.86
2022-08-03T05:23:42.694Z,19.87
2022-08-03T05:26:11.903Z,19.87
2022-08-03T05:28:50.772Z,19.98
2022-08-03T05:31:20.499Z,20.04
2022-08-03T05:33:49.196Z,20.22
2022-08-03T05:36:17.504Z,20.37
2022-08-03T05:38:46.097Z,20.27
2022-08-03T05:41:23.556Z,20.54
2022-08-03T05:44:04.280Z,20.58
2022-08-03T05:46:32.454Z,20.75
2022-08-03T05:49:00.896Z,20.73
2022-08-03T05:51:29.154Z,20.82
2022-08-03T05:53:57.321Z,20.63
2022-08-03T05:56:26.750Z,20.75
2022-08-03T05:58:55.186Z,20.87
2022-08-03T06:01:25.180Z,20.92
2022-08-03T06:03:55.012Z,21.08
2022-08-03T06:06:23.617Z,21.19
2022-08-03T06:08:51.815Z,21.35
2022-08-03T06:11:20.397Z,21.57
2022-08-03T06:13:48.717Z,21.63
2022-08-03T06:16:17.170Z,21.75
2022-08-03T06:18:54.755Z,21.94
2022-08-03T06:21:23.320Z,22.00
2022-08-03T06:23:56.271Z,22.17
2022-08-03T06:26:32.001Z,22.38
2022-08-03T06:29:03.954Z,22.42
2022-08-03T06:31:33.815Z,22.50
2022-08-03T06:34:33.480Z,22.69
2022-08-03T06:36:58.548Z,22.80
2022-08-03T06:39:29.969Z,22.90
2022-08-03T06:41:58.296Z,22.90
2022-08-03T06:44:27.710Z,22.86
2022-08-03T06:46:56.002Z,22.90
2022-08-03T06:49:26.777Z,23.19
2022-08-03T06:52:03.717Z,23.33
2022-08-03T06:54:35.706Z,23.55
2022-08-03T06:57:04.334Z,23.76
2022-08-03T07:00:09.958Z,23.95
2022-08-03T07:02:21.245Z,24.12
2022-08-03T07:04:52.324Z,24.17
2022-08-03T07:07:21.270Z,24.39
2022-08-03T07:09:57.406Z,24.53
2022-08-03T07:12:29.241Z,24.73
2022-08-03T07:15:01.129Z,24.87
2022-08-03T07:17:31.667Z,25.05
2022-08-03T07:20:02.182Z,24.95
2022-08-03T07:22:30.693Z,24.97
2022-08-03T07:24:59.002Z,25.15
2022-08-03T07:27:29.505Z,25.35
2022-08-03T07:29:59.244Z,25.37
2022-08-03T07:32:31.704Z,25.50
2022-08-03T07:35:01.840Z,25.53
2022-08-03T07:37:30.702Z,25.73
2022-08-03T07:39:59.308Z,25.76
2022-08-03T07:42:27.496Z,25.74
2022-08-03T07:44:56.461Z,25.86
2022-08-03T07:47:35.571Z,25.61
2022-08-03T07:50:08.769Z,25.77
2022-08-03T07:52:49.656Z,25.78
2022-08-03T07:55:19.213Z,26.01
2022-08-03T07:57:47.499Z,26.04
2022-08-03T08:00:18.395Z,26.06
2022-08-03T08:02:47.320Z,25.99
2022-08-03T08:05:17.091Z,26.20
2022-08-03T08:07:51.604Z,26.39
2022-08-03T08:10:20.718Z,26.63
2022-08-03T08:12:49.629Z,26.71
2022-08-03T08:15:18.998Z,26.80
2022-08-03T08:17:49.557Z,27.15
2022-08-03T08:20:28.548Z,27.15
2022-08-03T08:23:02.033Z,27.02
2022-08-03T08:25:31.983Z,27.03
2022-08-03T08:28:29.191Z,27.07
2022-08-03T08:30:51.391Z,27.05
2022-08-03T08:33:23.049Z,27.05
2022-08-03T08:35:55.010Z,27.34
2022-08-03T08:38:23.939Z,27.37
2022-08-03T08:40:52.745Z,27.70
2022-08-03T08:43:21.098Z,28.12
2022-08-03T08:45:51.815Z,28.03
2022-08-03T08:48:24.764Z,28.12
2022-08-03T08:50:57.125Z,28.16
2022-08-03T08:53:29.502Z,28.33
2022-08-03T08:56:01.714Z,28.26
2022-08-03T08:58:32.726Z,28.22
2022-08-03T09:01:01.107Z,28.26
2022-08-03T09:03:30.800Z,28.82
2022-08-03T09:06:03.369Z,29.04
2022-08-03T09:08:32.552Z,29.34
2022-08-03T09:11:01.598Z,29.39
2022-08-03T09:13:30.692Z,29.55
2022-08-03T09:16:13.377Z,29.32
2022-08-03T09:18:42.562Z,29.72
2022-08-03T09:21:34.184Z,29.71
2022-08-03T09:24:06.497Z,29.92
2022-08-03T09:26:39.383Z,30.03
2022-08-03T09:29:14.926Z,30.07
2022-08-03T09:31:47.079Z,30.16
2022-08-03T09:34:17.615Z,29.91
2022-08-03T09:36:48.751Z,30.21
2022-08-03T09:39:18.029Z,30.36
2022-08-03T09:41:48.837Z,30.56
2022-08-03T09:44:25.670Z,30.19
2022-08-03T09:46:57.325Z,30.24
2022-08-03T09:49:27.750Z,30.59
2022-08-03T09:52:33.932Z,30.69
2022-08-03T09:54:54.178Z,30.86
2022-08-03T09:57:24.238Z,31.09
2022-08-03T10:00:02.936Z,30.94
2022-08-03T10:02:34.667Z,30.92
2022-08-03T10:05:03.187Z,30.96
2022-08-03T10:07:46.124Z,31.34
2022-08-03T10:10:29.878Z,31.66
2022-08-03T10:13:01.517Z,31.56
2022-08-03T10:16:25.303Z,31.69
2022-08-03T10:18:18.789Z,31.12
2022-08-03T10:20:56.884Z,31.58
2022-08-03T10:23:28.710Z,31.70
2022-08-03T10:26:04.947Z,31.81
2022-08-03T10:28:40.376Z,32.17
2022-08-03T10:31:14.631Z,32.19
2022-08-03T10:33:49.518Z,31.96
2022-08-03T10:36:24.700Z,32.31
2022-08-03T10:38:57.370Z,32.42
2022-08-03T10:41:33.450Z,32.23
2022-08-03T10:44:06.761Z,32.84
2022-08-03T10:46:38.361Z,32.70
2022-08-03T10:49:10.729Z,33.00
2022-08-03T10:51:39.803Z,32.35
2022-08-03T10:54:11.994Z,32.04
2022-08-03T10:57:04.131Z,32.33
2022-08-03T11:00:03.976Z,32.66
2022-08-03T11:03:04.466Z,33.17
2022-08-03T11:05:34.610Z,33.11
2022-08-03T11:08:25.932Z,33.36
2022-08-03T11:11:02.152Z,34.09
2022-08-03T11:13:34.086Z,34.30
2022-08-03T11:16:07.753Z,34.43
2022-08-03T11:18:38.028Z,32.58
2022-08-03T11:21:07.278Z,33.03
2022-08-03T11:24:05.459Z,33.93
2022-08-03T11:26:34.741Z,33.59
2022-08-03T11:29:29.383Z,32.42
2022-08-03T11:31:58.154Z,33.05
2022-08-03T11:34:27.919Z,32.87
2022-08-03T11:37:28.768Z,33.42
2022-08-03T11:39:59.981Z,33.24
2022-08-03T11:42:47.166Z,33.71
2022-08-03T11:45:15.711Z,34.37
2022-08-03T11:47:50.550Z,34.52
2022-08-03T11:50:20.341Z,33.60
2022-08-03T11:52:51.029Z,32.64
2022-08-03T11:55:22.276Z,32.75
2022-08-03T11:59:00.955Z,33.16
2022-08-03T12:00:41.043Z,32.70
2022-08-03T12:03:13.904Z,33.14
2022-08-03T12:05:51.932Z,33.84
2022-08-03T12:08:32.377Z,34.76
2022-08-03T12:11:03.157Z,34.56
2022-08-03T12:14:45.748Z,34.44
2022-08-03T12:16:32.624Z,34.91
2022-08-03T12:19:03.002Z,35.34
2022-08-03T12:21:31.776Z,35.29
2022-08-03T12:24:01.247Z,34.39
2022-08-03T12:26:30.035Z,34.48
2022-08-03T12:28:59.636Z,34.77
2022-08-03T12:31:27.831Z,34.33
2022-08-03T12:33:59.141Z,34.87
2022-08-03T12:36:28.579Z,35.56
2022-08-03T12:38:57.987Z,35.48
2022-08-03T12:41:31.034Z,35.84
2022-08-03T12:44:03.480Z,35.56
2022-08-03T12:46:33.837Z,34.88
2022-08-03T12:49:12.712Z,35.18
2022-08-03T12:52:01.737Z,34.16
2022-08-03T12:54:34.093Z,35.68
2022-08-03T12:57:04.609Z,36.01
2022-08-03T12:59:40.545Z,35.28
2022-08-03T13:02:17.716Z,35.23
2022-08-03T13:04:47.970Z,35.44
2022-08-03T13:07:18.365Z,35.23
2022-08-03T13:09:49.669Z,34.15
2022-08-03T13:12:20.930Z,35.10
2022-08-03T13:14:53.384Z,35.90
2022-08-03T13:17:22.000Z,36.19
2022-08-03T13:19:51.723Z,36.35
2022-08-03T13:22:21.462Z,36.47
2022-08-03T13:24:51.670Z,36.35
2022-08-03T13:28:01.698Z,34.65
2022-08-03T13:30:12.052Z,35.47
2022-08-03T13:32:40.291Z,35.72
2022-08-03T13:35:09.434Z,35.98
2022-08-03T13:37:39.061Z,36.43
2022-08-03T13:40:11.785Z,36.49
2022-08-03T13:42:42.929Z,36.45
2022-08-03T13:45:12.805Z,36.79
2022-08-03T13:47:41.047Z,36.82
2022-08-03T13:50:10.133Z,35.60
2022-08-03T13:52:38.428Z,35.07
2022-08-03T13:55:08.653Z,35.49
2022-08-03T13:58:03.675Z,36.30
2022-08-03T14:00:29.533Z,36.96
2022-08-03T14:03:06.739Z,36.71
2022-08-03T14:05:41.147Z,35.84
2022-08-03T14:08:09.851Z,35.40
2022-08-03T14:10:40.555Z,35.77
2022-08-03T14:13:09.673Z,35.68
2022-08-03T14:15:39.461Z,34.98
2022-08-03T14:18:12.857Z,35.91
2022-08-03T14:20:50.005Z,36.65
2022-08-03T14:23:19.840Z,37.21
2022-08-03T14:25:51.596Z,37.77
2022-08-03T14:28:22.771Z,38.10
2022-08-03T14:30:56.097Z,37.99
2022-08-03T14:33:24.791Z,37.41
2022-08-03T14:35:53.817Z,37.46
2022-08-03T14:38:24.253Z,37.74
2022-08-03T14:40:53.241Z,38.39
2022-08-03T14:43:22.873Z,38.71
2022-08-03T14:45:53.101Z,38.43
2022-08-03T14:50:30.652Z,38.11
2022-08-03T14:51:15.810Z,37.39
2022-08-03T14:53:46.390Z,37.28
2022-08-03T14:56:14.768Z,37.44
2022-08-03T14:58:42.931Z,37.16
2022-08-03T15:02:02.407Z,37.44
2022-08-03T15:04:02.275Z,37.24
2022-08-03T15:06:30.470Z,37.35
2022-08-03T15:09:23.736Z,37.18
2022-08-03T15:11:47.357Z,37.65
2022-08-03T15:14:15.798Z,37.59
2022-08-03T15:16:44.168Z,37.62
2022-08-03T15:20:00.341Z,38.53
2022-08-03T15:22:02.116Z,38.37
2022-08-03T15:24:30.832Z,38.19
2022-08-03T15:26:59.206Z,38.41
2022-08-03T15:30:05.990Z,37.85
2022-08-03T15:32:16.240Z,37.40
2022-08-03T15:34:50.042Z,37.45
2022-08-03T15:37:19.100Z,37.64
2022-08-03T15:39:58.902Z,35.67
2022-08-03T15:42:29.690Z,37.19
2022-08-03T15:44:57.893Z,38.82
2022-08-03T15:47:26.559Z,38.86
2022-08-03T15:49:56.424Z,38.46
2022-08-03T15:52:24.754Z,38.25
2022-08-03T15:54:52.826Z,38.28
2022-08-03T15:57:22.315Z,36.92
2022-08-03T15:59:50.884Z,37.18
2022-08-03T16:02:19.317Z,36.71
2022-08-03T16:04:47.793Z,36.26
2022-08-03T16:07:38.174Z,36.81
2022-08-03T16:10:06.887Z,37.39
2022-08-03T16:12:35.576Z,37.40
2022-08-03T16:15:05.011Z,37.65
2022-08-03T16:17:33.460Z,37.41
2022-08-03T16:20:04.165Z,37.23
2022-08-03T16:22:45.655Z,37.46
2022-08-03T16:25:16.801Z,37.78
2022-08-03T16:28:03.310Z,37.82
2022-08-03T16:30:35.090Z,37.70
2022-08-03T16:33:03.810Z,37.72
2022-08-03T16:35:32.153Z,37.41
2022-08-03T16:38:05.336Z,37.47
2022-08-03T16:40:37.717Z,37.73
2022-08-03T16:43:17.820Z,37.90
2022-08-03T16:45:48.765Z,37.61
2022-08-03T16:48:17.309Z,37.73
2022-08-03T16:50:45.845Z,37.52
2022-08-03T16:53:17.245Z,37.37
2022-08-03T16:55:52.317Z,37.61
2022-08-03T16:58:34.303Z,37.46
2022-08-03T17:01:06.430Z,37.08
2022-08-03T17:04:01.621Z,37.23
2022-08-03T17:06:34.363Z,37.26
2022-08-03T17:09:09.238Z,37.42
2022-08-03T17:11:43.913Z,37.41
2022-08-03T17:14:16.399Z,37.49
2022-08-03T17:16:52.690Z,37.41
2022-08-03T17:19:25.024Z,37.34
2022-08-03T17:22:01.178Z,37.36
2022-08-03T17:24:40.860Z,37.43
2022-08-03T17:28:41.393Z,37.27
2022-08-03T17:30:07.580Z,37.44
2022-08-03T17:32:42.693Z,37.34
2022-08-03T17:35:12.261Z,37.76
2022-08-03T17:37:57.677Z,37.23
2022-08-03T17:40:34.211Z,36.57
2022-08-03T17:44:13.937Z,36.17
2022-08-03T17:45:54.831Z,36.05
2022-08-03T17:48:25.245Z,35.68
2022-08-03T17:51:00.287Z,35.77
2022-08-03T17:53:32.034Z,35.93
2022-08-03T17:56:44.507Z,35.67
2022-08-03T17:59:09.165Z,35.66
2022-08-03T18:02:08.068Z,35.48
2022-08-03T18:04:55.365Z,35.16
2022-08-03T18:07:41.179Z,35.23
2022-08-03T18:10:15.116Z,35.20
2022-08-03T18:12:52.380Z,35.27
2022-08-03T18:15:30.618Z,35.11
2022-08-03T18:18:10.682Z,34.83
2022-08-03T18:20:42.031Z,34.75
2022-08-03T18:23:24.957Z,34.85
2022-08-03T18:26:01.983Z,34.57
2022-08-03T18:28:32.493Z,34.36
2022-08-03T18:31:05.713Z,34.46
2022-08-03T18:34:16.272Z,34.38
2022-08-03T18:36:31.115Z,34.15
2022-08-03T18:39:03.148Z,34.05
2022-08-03T18:41:34.819Z,34.06
2022-08-03T18:44:09.448Z,34.04
2022-08-03T18:47:16.630Z,33.86
2022-08-03T18:49:54.609Z,33.71
2022-08-03T18:52:27.990Z,33.57
2022-08-03T18:55:20.584Z,33.39
2022-08-03T18:58:01.163Z,33.27
2022-08-03T19:00:54.453Z,33.42
2022-08-03T19:03:41.244Z,33.25
2022-08-03T19:06:20.471Z,33.23
2022-08-03T19:08:55.809Z,32.97
2022-08-03T19:12:10.980Z,32.74
2022-08-03T19:14:28.635Z,32.71
2022-08-03T19:17:06.567Z,32.61
2022-08-03T19:19:43.365Z,32.60
2022-08-03T19:22:15.917Z,32.63
2022-08-03T19:24:47.904Z,32.54
2022-08-03T19:27:16.797Z,32.42
2022-08-03T19:30:00.476Z,32.26
2022-08-03T19:32:33.384Z,31.87
2022-08-03T19:35:03.598Z,31.82
2022-08-03T19:37:39.860Z,31.75
2022-08-03T19:40:10.255Z,31.65
2022-08-03T19:42:47.770Z,31.36
2022-08-03T19:45:22.566Z,31.19
2022-08-03T19:48:15.090Z,30.94
2022-08-03T19:50:44.734Z,30.89
2022-08-03T19:53:15.368Z,30.74
2022-08-03T19:55:48.777Z,30.54
2022-08-03T19:58:24.522Z,30.65
2022-08-03T20:00:57.593Z,30.39
2022-08-03T20:06:22.144Z,30.19
2022-08-03T20:08:51.772Z,30.28
2022-08-03T20:11:28.689Z,29.92
2022-08-03T20:13:59.060Z,29.91
2022-08-03T20:16:27.514Z,29.98
2022-08-03T20:18:57.467Z,30.10
2022-08-03T20:21:32.353Z,29.71
2022-08-03T20:24:23.811Z,29.80
2022-08-03T20:26:56.664Z,29.53
2022-08-03T20:29:42.636Z,29.18
2022-08-03T20:32:24.647Z,29.36
2022-08-03T20:34:54.913Z,29.43
2022-08-03T20:37:23.638Z,29.39
2022-08-03T20:39:52.124Z,29.21
2022-08-03T20:42:21.945Z,29.08
2022-08-03T20:45:05.243Z,29.14
2022-08-03T20:47:36.495Z,29.14
2022-08-03T20:50:12.346Z,29.00
2022-08-03T20:52:49.411Z,29.01
2022-08-03T20:55:20.503Z,28.90
2022-08-03T20:58:08.649Z,28.49
2022-08-03T21:00:36.818Z,28.51
2022-08-03T21:03:06.992Z,28.44
2022-08-03T21:05:51.355Z,28.19
2022-08-03T21:08:22.817Z,28.17
2022-08-03T21:10:53.132Z,28.25
2022-08-03T21:13:08.944Z,30.14
2022-08-03T21:13:26.060Z,28.26
2022-08-03T21:16:11.231Z,28.36
2022-08-03T21:18:47.716Z,28.31
2022-08-03T21:21:20.247Z,28.14
2022-08-03T21:23:52.858Z,28.04
2022-08-03T21:26:23.181Z,27.98
2022-08-03T21:28:53.935Z,27.79
2022-08-03T21:31:25.908Z,27.71
2022-08-03T21:33:57.172Z,27.81
2022-08-03T21:36:28.840Z,27.58
2022-08-03T21:38:57.987Z,27.44
2022-08-03T21:41:27.627Z,27.33
2022-08-03T21:43:56.047Z,27.65
2022-08-03T21:46:25.113Z,27.42
2022-08-03T21:50:05.455Z,27.45
2022-08-03T21:51:51.356Z,27.42
2022-08-03T21:54:22.064Z,27.26
2022-08-03T21:56:55.238Z,27.36
2022-08-03T21:59:25.190Z,27.21
2022-08-03T22:01:58.569Z,26.97
2022-08-03T22:04:50.723Z,26.78
2022-08-03T22:07:18.550Z,26.73
2022-08-03T22:09:51.205Z,26.79
2022-08-03T22:12:24.820Z,26.73
2022-08-03T22:15:00.943Z,26.68
2022-08-03T22:17:56.228Z,26.59
2022-08-03T22:20:21.556Z,26.53
2022-08-03T22:22:56.552Z,26.43
2022-08-03T22:25:30.826Z,26.50
2022-08-03T22:28:00.765Z,26.39
2022-08-03T22:30:29.190Z,26.28
2022-08-03T22:32:58.265Z,26.17
2022-08-03T22:35:28.047Z,26.09
2022-08-03T22:38:00.290Z,26.17
2022-08-03T22:40:29.153Z,26.25
2022-08-03T22:42:59.162Z,26.21
2022-08-03T22:46:07.218Z,26.13
2022-08-03T22:48:18.107Z,26.04
2022-08-03T22:50:49.194Z,26.04
2022-08-03T22:53:21.488Z,26.07
2022-08-03T22:55:53.407Z,25.88
2022-08-03T22:58:22.236Z,25.71
2022-08-03T23:00:54.619Z,25.55
2022-08-03T23:04:00.686Z,25.39
2022-08-03T23:06:20.975Z,25.21
2022-08-03T23:08:52.009Z,25.13
2022-08-03T23:11:21.590Z,25.00
2022-08-03T23:13:54.092Z,25.02
2022-08-03T23:16:28.944Z,24.84
2022-08-03T23:18:59.616Z,24.93
2022-08-03T23:21:53.721Z,25.06
2022-08-03T23:24:29.422Z,25.07
2022-08-03T23:26:59.135Z,25.19
2022-08-03T23:29:30.238Z,25.09
2022-08-03T23:31:59.806Z,25.01
2022-08-03T23:34:46.667Z,25.09
2022-08-03T23:37:16.080Z,25.19
2022-08-03T23:39:48.055Z,25.21
2022-08-03T23:42:19.116Z,25.27
2022-08-03T23:44:48.222Z,25.13
2022-08-03T23:47:16.274Z,24.87
2022-08-03T23:49:44.805Z,24.81
2022-08-03T23:52:21.885Z,24.66
2022-08-03T23:55:05.381Z,24.58
2022-08-03T23:57:44.528Z,24.60
